createdAt,value
2018-03-07T00:00:32.150Z,99165.55
2018-03-07T00:03:00.496Z,99165.73
2018-03-07T00:05:28.874Z,99171.80
2018-03-07T00:07:57.998Z,99174.12
2018-03-07T00:10:26.321Z,99170.02
2018-03-07T00:12:54.658Z,99177.41
2018-03-07T00:15:23.078Z,99171.84
2018-03-07T00:17:51.420Z,99170.74
2018-03-07T00:20:19.768Z,99166.41
2018-03-07T00:22:48.168Z,99174.39
2018-03-07T00:25:16.486Z,99168.62
2018-03-07T00:27:44.821Z,99165.78
2018-03-07T00:30:13.164Z,99163.72
2018-03-07T00:32:41.494Z,99165.75
2018-03-07T00:35:09.849Z,99162.58
2018-03-07T00:37:39.441Z,99169.75
2018-03-07T00:40:07.798Z,99168.67
2018-03-07T00:42:44.729Z,99162.03
2018-03-07T00:45:22.294Z,99161.70
2018-03-07T00:47:51.031Z,99162.47
2018-03-07T00:50:19.333Z,99165.55
2018-03-07T00:52:47.654Z,99168.80
2018-03-07T00:55:16.102Z,99166.59
2018-03-07T00:57:44.448Z,99160.62
2018-03-07T01:00:12.785Z,99159.80
2018-03-07T01:02:41.295Z,99157.36
2018-03-07T01:05:09.621Z,99160.86
2018-03-07T01:07:38.737Z,99155.64
2018-03-07T01:10:07.123Z,99160.16
2018-03-07T01:12:35.533Z,99157.08
2018-03-07T01:15:03.841Z,99155.84
2018-03-07T01:17:32.769Z,99156.45
2018-03-07T01:20:01.110Z,99157.23
2018-03-07T01:22:29.461Z,99156.77
2018-03-07T01:24:57.816Z,99158.64
2018-03-07T01:27:26.158Z,99152.69
2018-03-07T01:29:54.484Z,99153.75
2018-03-07T01:32:22.842Z,99153.39
2018-03-07T01:34:52.279Z,99145.28
2018-03-07T01:37:20.610Z,99147.84
2018-03-07T01:39:49.785Z,99144.38
2018-03-07T01:42:18.116Z,99144.47
2018-03-07T01:44:46.441Z,99145.58
2018-03-07T01:47:14.797Z,99143.66
2018-03-07T01:49:43.151Z,99141.08
2018-03-07T01:52:11.482Z,99135.72
2018-03-07T01:54:39.861Z,99145.39
2018-03-07T01:57:08.206Z,99139.91
2018-03-07T01:59:36.536Z,99132.48
2018-03-07T02:02:05.947Z,99136.14
2018-03-07T02:04:34.263Z,99134.13
2018-03-07T02:07:02.583Z,99140.69
2018-03-07T02:09:30.954Z,99134.73
2018-03-07T02:11:59.269Z,99134.05
2018-03-07T02:14:27.612Z,99122.05
2018-03-07T02:16:55.955Z,99127.25
2018-03-07T02:19:24.277Z,99137.28
2018-03-07T02:21:52.619Z,99135.14
2018-03-07T02:24:21.261Z,99132.39
2018-03-07T02:26:49.688Z,99128.94
2018-03-07T02:29:18.009Z,99131.77
2018-03-07T02:31:47.109Z,99129.83
2018-03-07T02:34:16.217Z,99128.73
2018-03-07T02:36:44.548Z,99127.77
2018-03-07T02:39:12.909Z,99129.41
2018-03-07T02:41:41.251Z,99124.58
2018-03-07T02:44:10.341Z,99132.31
2018-03-07T02:46:39.025Z,99132.03
2018-03-07T02:49:07.397Z,99128.98
2018-03-07T02:51:36.478Z,99131.91
2018-03-07T02:54:04.824Z,99128.99
2018-03-07T02:56:33.143Z,99128.37
2018-03-07T02:59:01.518Z,99133.24
2018-03-07T03:01:29.860Z,99134.88
2018-03-07T03:03:58.201Z,99129.29
2018-03-07T03:06:26.517Z,99135.40
2018-03-07T03:08:54.996Z,99129.45
2018-03-07T03:11:23.347Z,99130.66
2018-03-07T03:13:51.690Z,99128.55
2018-03-07T03:16:20.048Z,99132.86
2018-03-07T03:18:48.398Z,99131.77
2018-03-07T03:21:16.978Z,99133.95
2018-03-07T03:23:45.341Z,99129.34
2018-03-07T03:26:14.455Z,99131.87
2018-03-07T03:28:42.809Z,99134.99
2018-03-07T03:31:11.518Z,99141.65
2018-03-07T03:33:39.853Z,99130.63
2018-03-07T03:36:08.227Z,99137.54
2018-03-07T03:38:36.605Z,99138.67
2018-03-07T03:41:04.933Z,99141.78
2018-03-07T03:43:33.258Z,99139.20
2018-03-07T03:46:01.642Z,99139.36
2018-03-07T03:48:29.985Z,99135.23
2018-03-07T03:50:58.315Z,99134.45
2018-03-07T03:53:27.196Z,99135.92
2018-03-07T03:55:55.512Z,99135.55
2018-03-07T03:58:23.888Z,99140.84
2018-03-07T04:00:52.246Z,99140.00
2018-03-07T04:03:21.359Z,99134.85
2018-03-07T04:05:49.697Z,99139.53
2018-03-07T04:08:18.083Z,99135.41
2018-03-07T04:10:46.396Z,99134.42
2018-03-07T04:13:15.493Z,99141.85
2018-03-07T04:15:44.974Z,99137.16
2018-03-07T04:18:13.276Z,99133.44
2018-03-07T04:20:41.589Z,99139.76
2018-03-07T04:23:09.929Z,99134.07
2018-03-07T04:25:38.254Z,99137.96
2018-03-07T04:28:06.776Z,99140.81
2018-03-07T04:30:35.121Z,99131.70
2018-03-07T04:33:03.517Z,99136.48
2018-03-07T04:35:31.858Z,99141.85
2018-03-07T04:38:00.352Z,99136.81
2018-03-07T04:40:28.724Z,99133.81
2018-03-07T04:42:57.060Z,99135.44
2018-03-07T04:45:25.429Z,99137.72
2018-03-07T04:47:54.678Z,99135.92
2018-03-07T04:50:22.992Z,99136.97
2018-03-07T04:52:51.367Z,99137.12
2018-03-07T04:55:19.689Z,99139.13
2018-03-07T04:57:48.025Z,99140.74
2018-03-07T05:00:16.856Z,99137.73
2018-03-07T05:02:45.242Z,99140.56
2018-03-07T05:05:13.540Z,99141.47
2018-03-07T05:07:41.880Z,99143.50
2018-03-07T05:10:10.974Z,99139.98
2018-03-07T05:12:39.296Z,99136.58
2018-03-07T05:15:07.669Z,99144.41
2018-03-07T05:17:36.011Z,99148.01
2018-03-07T05:20:05.112Z,99142.38
2018-03-07T05:22:33.826Z,99139.09
2018-03-07T05:25:02.185Z,99137.49
2018-03-07T05:27:30.524Z,99142.56
2018-03-07T05:29:58.901Z,99143.88
2018-03-07T05:32:27.281Z,99151.20
2018-03-07T05:34:55.615Z,99152.53
2018-03-07T05:37:23.961Z,99143.78
2018-03-07T05:39:53.020Z,99146.27
2018-03-07T05:42:21.354Z,99150.06
2018-03-07T05:44:49.984Z,99147.02
2018-03-07T05:47:18.334Z,99146.14
2018-03-07T05:49:46.703Z,99146.98
2018-03-07T05:52:15.076Z,99154.70
2018-03-07T05:54:44.184Z,99147.84
2018-03-07T05:57:12.505Z,99148.39
2018-03-07T05:59:40.868Z,99154.56
2018-03-07T06:02:09.268Z,99154.49
2018-03-07T06:04:37.624Z,99148.80
2018-03-07T06:07:07.234Z,99147.80
2018-03-07T06:09:35.547Z,99161.36
2018-03-07T06:12:03.881Z,99166.22
2018-03-07T06:14:32.221Z,99162.09
2018-03-07T06:17:01.286Z,99159.62
2018-03-07T06:19:29.630Z,99158.66
2018-03-07T06:21:57.995Z,99161.36
2018-03-07T06:24:26.367Z,99165.31
2018-03-07T06:26:54.739Z,99165.00
2018-03-07T06:29:23.262Z,99172.47
2018-03-07T06:31:51.610Z,99170.31
2018-03-07T06:34:19.944Z,99166.38
2018-03-07T06:36:48.292Z,99168.09
2018-03-07T06:39:16.600Z,99172.05
2018-03-07T06:41:44.922Z,99174.75
2018-03-07T06:44:13.265Z,99178.05
2018-03-07T06:46:41.573Z,99176.63
2018-03-07T06:49:09.892Z,99175.34
2018-03-07T06:51:38.617Z,99182.95
2018-03-07T06:54:06.912Z,99180.48
2018-03-07T06:56:36.037Z,99181.93
2018-03-07T06:59:04.386Z,99183.72
2018-03-07T07:01:33.491Z,99185.02
2018-03-07T07:04:01.839Z,99190.67
2018-03-07T07:06:30.206Z,99194.68
2018-03-07T07:08:58.565Z,99190.98
2018-03-07T07:11:26.944Z,99192.78
2018-03-07T07:13:55.512Z,99195.58
2018-03-07T07:16:23.815Z,99195.38
2018-03-07T07:18:52.161Z,99199.23
2018-03-07T07:21:20.553Z,99204.45
2018-03-07T07:23:48.884Z,99203.36
2018-03-07T07:26:18.040Z,99209.31
2018-03-07T07:28:46.437Z,99212.47
2018-03-07T07:31:14.778Z,99205.91
2018-03-07T07:33:43.158Z,99209.67
2018-03-07T07:36:11.822Z,99207.77
2018-03-07T07:38:40.123Z,99217.32
2018-03-07T07:41:08.478Z,99216.91
2018-03-07T07:43:36.866Z,99227.66
2018-03-07T07:46:05.157Z,99227.20
2018-03-07T07:48:34.258Z,99228.07
2018-03-07T07:51:02.634Z,99229.58
2018-03-07T07:53:30.986Z,99234.38
2018-03-07T07:56:00.162Z,99240.09
2018-03-07T07:58:28.785Z,99239.28
2018-03-07T08:00:57.137Z,99236.89
2018-03-07T08:03:26.213Z,99237.23
2018-03-07T08:05:54.640Z,99243.91
2018-03-07T08:08:23.723Z,99239.63
2018-03-07T08:10:52.037Z,99236.52
2018-03-07T08:13:20.419Z,99238.39
2018-03-07T08:15:48.853Z,99241.88
2018-03-07T08:18:18.015Z,99240.12
2018-03-07T08:20:47.155Z,99243.09
2018-03-07T08:23:15.504Z,99237.34
2018-03-07T08:25:43.816Z,99239.39
2018-03-07T08:28:12.474Z,99237.22
2018-03-07T08:30:40.772Z,99244.84
2018-03-07T08:33:09.855Z,99245.47
2018-03-07T08:35:38.962Z,99246.73
2018-03-07T08:38:08.068Z,99247.91
2018-03-07T08:40:36.512Z,99250.70
2018-03-07T08:43:05.114Z,99251.27
2018-03-07T08:45:33.440Z,99246.39
2018-03-07T08:48:01.779Z,99248.55
2018-03-07T08:50:30.967Z,99253.55
2018-03-07T08:52:59.315Z,99256.91
2018-03-07T08:55:27.633Z,99254.05
2018-03-07T08:57:56.743Z,99263.72
2018-03-07T09:00:25.075Z,99261.64
2018-03-07T09:02:53.406Z,99257.36
2018-03-07T09:05:22.083Z,99265.10
2018-03-07T09:07:50.430Z,99260.47
2018-03-07T09:10:18.780Z,99260.64
2018-03-07T09:12:47.116Z,99265.20
2018-03-07T09:15:16.225Z,99264.72
2018-03-07T09:17:44.564Z,99267.06
2018-03-07T09:20:12.922Z,99272.72
2018-03-07T09:22:41.289Z,99266.54
2018-03-07T09:25:09.628Z,99264.55
2018-03-07T09:27:39.125Z,99267.77
2018-03-07T09:30:08.262Z,99267.09
2018-03-07T09:32:36.614Z,99268.39
2018-03-07T09:35:05.001Z,99268.80
2018-03-07T09:37:33.369Z,99279.20
2018-03-07T09:40:01.714Z,99276.95
2018-03-07T09:42:30.829Z,99274.56
2018-03-07T09:44:59.941Z,99280.03
2018-03-07T09:47:28.272Z,99281.95
2018-03-07T09:49:56.765Z,99275.31
2018-03-07T09:52:25.098Z,99279.59
2018-03-07T09:54:53.478Z,99274.23
2018-03-07T09:57:21.832Z,99279.16
2018-03-07T09:59:50.199Z,99281.91
2018-03-07T10:02:19.299Z,99284.40
2018-03-07T10:04:48.448Z,99281.22
2018-03-07T10:07:16.774Z,99282.94
2018-03-07T10:09:45.863Z,99286.34
2018-03-07T10:12:14.472Z,99288.77
2018-03-07T10:14:42.820Z,99281.81
2018-03-07T10:17:11.165Z,99291.31
2018-03-07T10:19:39.548Z,99291.42
2018-03-07T10:22:07.883Z,99289.02
2018-03-07T10:24:36.240Z,99286.98
2018-03-07T10:27:05.360Z,99289.38
2018-03-07T10:29:34.442Z,99287.25
2018-03-07T10:32:03.551Z,99289.84
2018-03-07T10:34:32.105Z,99295.25
2018-03-07T10:37:00.445Z,99297.34
2018-03-07T10:39:28.762Z,99297.18
2018-03-07T10:41:57.139Z,99298.21
2018-03-07T10:44:25.492Z,99299.52
2018-03-07T10:46:53.841Z,99302.50
2018-03-07T10:49:22.235Z,99301.98
2018-03-07T10:51:50.593Z,99300.20
2018-03-07T10:54:18.928Z,99311.19
2018-03-07T10:56:47.668Z,99311.33
2018-03-07T10:59:16.002Z,99308.66
2018-03-07T11:01:44.342Z,99307.20
2018-03-07T11:04:12.701Z,99313.95
2018-03-07T11:06:41.077Z,99306.96
2018-03-07T11:09:09.425Z,99307.66
2018-03-07T11:11:37.812Z,99310.00
2018-03-07T11:14:06.889Z,99316.36
2018-03-07T11:16:35.233Z,99314.13
2018-03-07T11:19:03.852Z,99311.06
2018-03-07T11:21:32.161Z,99311.09
2018-03-07T11:24:01.300Z,99318.83
2018-03-07T11:26:29.659Z,99318.38
2018-03-07T11:28:58.012Z,99313.06
2018-03-07T11:31:26.374Z,99317.75
2018-03-07T11:33:54.869Z,99312.61
2018-03-07T11:36:23.218Z,99316.80
2018-03-07T11:38:51.570Z,99316.08
2018-03-07T11:41:20.324Z,99319.64
2018-03-07T11:43:48.673Z,99323.95
2018-03-07T11:46:17.014Z,99322.78
2018-03-07T11:48:45.359Z,99322.23
2018-03-07T11:51:14.441Z,99326.23
2018-03-07T11:53:42.794Z,99324.77
2018-03-07T11:56:11.172Z,99331.73
2018-03-07T11:58:39.497Z,99325.60
2018-03-07T12:01:07.832Z,99321.39
2018-03-07T12:03:36.252Z,99323.23
2018-03-07T12:06:04.620Z,99317.89
2018-03-07T12:08:33.006Z,99326.52
2018-03-07T12:11:01.368Z,99317.90
2018-03-07T12:13:29.674Z,99321.72
2018-03-07T12:15:58.020Z,99327.07
2018-03-07T12:18:26.417Z,99317.72
2018-03-07T12:20:55.504Z,99318.94
2018-03-07T12:23:24.621Z,99315.77
2018-03-07T12:25:53.381Z,99316.04
2018-03-07T12:28:21.712Z,99313.62
2018-03-07T12:30:50.238Z,99320.92
2018-03-07T12:33:18.605Z,99313.91
2018-03-07T12:35:46.922Z,99319.92
2018-03-07T12:38:15.255Z,99318.40
2018-03-07T12:40:43.625Z,99315.55
2018-03-07T12:43:11.980Z,99318.05
2018-03-07T12:45:40.331Z,99314.96
2018-03-07T12:48:08.930Z,99312.47
2018-03-07T12:50:37.238Z,99320.49
2018-03-07T12:53:05.647Z,99320.48
2018-03-07T12:55:34.022Z,99321.09
2018-03-07T12:58:02.342Z,99324.72
2018-03-07T13:00:31.451Z,99329.94
2018-03-07T13:02:59.813Z,99324.38
2018-03-07T13:05:28.158Z,99322.60
2018-03-07T13:07:56.464Z,99331.23
2018-03-07T13:10:25.908Z,99330.44
2018-03-07T13:12:54.259Z,99330.34
2018-03-07T13:15:22.630Z,99326.77
2018-03-07T13:17:50.997Z,99337.20
2018-03-07T13:20:20.244Z,99335.95
2018-03-07T13:22:48.597Z,99333.58
2018-03-07T13:25:16.974Z,99335.99
2018-03-07T13:27:45.334Z,99339.50
2018-03-07T13:30:14.439Z,99342.02
2018-03-07T13:32:43.954Z,99343.91
2018-03-07T13:35:13.022Z,99343.33
2018-03-07T13:37:42.113Z,99348.95
2018-03-07T13:40:10.488Z,99342.00
2018-03-07T13:42:38.846Z,99349.88
2018-03-07T13:45:07.190Z,99350.50
2018-03-07T13:47:35.546Z,99343.56
2018-03-07T13:50:03.874Z,99354.56
2018-03-07T13:52:32.212Z,99348.17
2018-03-07T13:55:01.425Z,99355.37
2018-03-07T13:57:29.785Z,99356.45
2018-03-07T13:59:58.857Z,99351.44
2018-03-07T14:02:27.237Z,99363.45
2018-03-07T14:04:55.551Z,99360.52
2018-03-07T14:07:23.893Z,99362.52
2018-03-07T14:09:52.321Z,99359.73
2018-03-07T14:12:20.664Z,99374.44
2018-03-07T14:14:49.742Z,99371.72
2018-03-07T14:17:18.296Z,99371.83
2018-03-07T14:19:46.617Z,99375.91
2018-03-07T14:22:14.965Z,99367.66
2018-03-07T14:24:43.370Z,99371.47
2018-03-07T14:27:11.694Z,99368.30
2018-03-07T14:29:40.044Z,99371.68
2018-03-07T14:32:08.396Z,99369.95
2018-03-07T14:34:36.728Z,99372.64
2018-03-07T14:37:05.053Z,99367.67
2018-03-07T14:39:33.684Z,99369.62
2018-03-07T14:42:02.037Z,99370.58
2018-03-07T14:44:31.117Z,99371.98
2018-03-07T14:46:59.475Z,99373.72
2018-03-07T14:49:27.822Z,99372.44
2018-03-07T14:51:56.149Z,99369.31
2018-03-07T14:54:24.545Z,99370.28
2018-03-07T14:56:52.891Z,99377.71
2018-03-07T14:59:21.210Z,99370.78
2018-03-07T15:01:50.827Z,99374.41
2018-03-07T15:04:19.172Z,99377.61
2018-03-07T15:06:47.482Z,99375.03
2018-03-07T15:09:16.584Z,99373.03
2018-03-07T15:11:45.658Z,99375.03
2018-03-07T15:14:14.744Z,99375.75
2018-03-07T15:16:43.134Z,99382.16
2018-03-07T15:19:11.474Z,99384.77
2018-03-07T15:21:39.824Z,99387.19
2018-03-07T15:24:08.630Z,99391.00
2018-03-07T15:26:36.999Z,99393.09
2018-03-07T15:29:05.327Z,99406.05
2018-03-07T15:31:33.717Z,99399.28
2018-03-07T15:34:02.058Z,99405.45
2018-03-07T15:36:30.390Z,99406.97
2018-03-07T15:38:59.518Z,99418.63
2018-03-07T15:41:27.857Z,99413.72
2018-03-07T15:43:56.971Z,99417.93
2018-03-07T15:46:25.941Z,99423.91
2018-03-07T15:48:54.312Z,99424.42
2018-03-07T15:51:22.664Z,99415.03
2018-03-07T15:53:51.097Z,99422.98
2018-03-07T15:56:20.200Z,99419.76
2018-03-07T15:58:48.566Z,99421.02
2018-03-07T16:01:16.924Z,99416.36
2018-03-07T16:03:45.288Z,99415.28
2018-03-07T16:06:13.650Z,99419.06
2018-03-07T16:08:42.350Z,99416.09
2018-03-07T16:11:10.680Z,99423.53
2018-03-07T16:13:39.037Z,99422.89
2018-03-07T16:16:07.400Z,99426.84
2018-03-07T16:18:35.797Z,99424.42
2018-03-07T16:21:04.136Z,99425.34
2018-03-07T16:23:32.487Z,99430.58
2018-03-07T16:26:00.930Z,99429.41
2018-03-07T16:28:30.011Z,99438.45
2018-03-07T16:30:58.744Z,99435.70
2018-03-07T16:33:27.082Z,99442.84
2018-03-07T16:35:55.455Z,99444.06
2018-03-07T16:38:23.839Z,99445.49
2018-03-07T16:40:52.217Z,99436.73
2018-03-07T16:43:20.538Z,99444.95
2018-03-07T16:45:49.660Z,99445.88
2018-03-07T16:48:18.006Z,99446.02
2018-03-07T16:50:46.401Z,99448.38
2018-03-07T16:53:14.868Z,99445.93
2018-03-07T16:55:43.221Z,99453.55
2018-03-07T16:58:11.577Z,99456.86
2018-03-07T17:00:39.935Z,99452.31
2018-03-07T17:03:08.266Z,99464.27
2018-03-07T17:05:37.377Z,99459.34
2018-03-07T17:08:05.793Z,99464.20
2018-03-07T17:10:34.223Z,99464.56
2018-03-07T17:13:03.318Z,99473.56
2018-03-07T17:15:31.862Z,99471.80
2018-03-07T17:18:00.221Z,99480.52
2018-03-07T17:20:28.554Z,99483.00
2018-03-07T17:22:56.928Z,99488.14
2018-03-07T17:25:25.288Z,99491.09
2018-03-07T17:27:53.630Z,99492.98
2018-03-07T17:30:21.983Z,99494.08
2018-03-07T17:32:50.327Z,99497.25
2018-03-07T17:35:18.675Z,99499.42
2018-03-07T17:37:47.424Z,99504.33
2018-03-07T17:40:16.536Z,99504.06
2018-03-07T17:42:44.851Z,99512.35
2018-03-07T17:45:13.484Z,99509.39
2018-03-07T17:47:41.838Z,99520.07
2018-03-07T17:50:10.179Z,99522.61
2018-03-07T17:52:38.541Z,99522.36
2018-03-07T17:55:06.857Z,99527.58
2018-03-07T17:57:35.218Z,99533.30
2018-03-07T18:00:03.973Z,99529.75
2018-03-07T18:02:32.301Z,99528.13
2018-03-07T18:05:00.638Z,99532.59
2018-03-07T18:07:29.051Z,99529.06
2018-03-07T18:09:57.426Z,99525.30
2018-03-07T18:12:25.773Z,99520.23
2018-03-07T18:14:54.148Z,99526.89
2018-03-07T18:17:23.260Z,99521.25
2018-03-07T18:19:51.585Z,99514.59
2018-03-07T18:22:20.124Z,99513.67
2018-03-07T18:24:48.481Z,99515.70
2018-03-07T18:27:17.589Z,99513.78
2018-03-07T18:29:45.974Z,99523.80
2018-03-07T18:32:15.094Z,99519.00
2018-03-07T18:34:43.441Z,99519.98
2018-03-07T18:37:11.819Z,99519.73
2018-03-07T18:39:40.182Z,99517.56
2018-03-07T18:42:09.302Z,99512.79
2018-03-07T18:44:37.912Z,99514.56
2018-03-07T18:47:06.281Z,99518.59
2018-03-07T18:49:34.617Z,99516.24
2018-03-07T18:52:02.997Z,99519.35
2018-03-07T18:54:32.127Z,99522.30
2018-03-07T18:57:00.486Z,99519.02
2018-03-07T18:59:29.623Z,99522.63
2018-03-07T19:01:57.985Z,99525.22
2018-03-07T19:04:26.364Z,99529.85
2018-03-07T19:06:54.841Z,99528.17
2018-03-07T19:09:23.159Z,99533.05
2018-03-07T19:11:51.486Z,99535.81
2018-03-07T19:14:19.905Z,99529.27
2018-03-07T19:16:48.255Z,99531.61
2018-03-07T19:19:16.830Z,99535.63
2018-03-07T19:21:45.992Z,99525.39
2018-03-07T19:24:15.800Z,99529.59
2018-03-07T19:26:44.237Z,99527.49
2018-03-07T19:29:12.774Z,99524.52
2018-03-07T19:31:41.961Z,99525.78
2018-03-07T19:34:10.766Z,99527.14
2018-03-07T19:36:39.109Z,99524.36
2018-03-07T19:39:07.449Z,99519.02
2018-03-07T19:41:36.553Z,99518.59
2018-03-07T19:44:04.921Z,99521.37
2018-03-07T19:46:33.300Z,99522.05
2018-03-07T19:49:01.628Z,99524.56
2018-03-07T19:51:30.045Z,99529.77
2018-03-07T19:53:59.153Z,99527.59
2018-03-07T19:56:27.517Z,99540.28
2018-03-07T19:58:56.675Z,99534.65
2018-03-07T20:01:25.005Z,99531.79
2018-03-07T20:03:54.247Z,99536.07
2018-03-07T20:06:22.588Z,99537.08
2018-03-07T20:08:51.870Z,99535.11
2018-03-07T20:11:20.322Z,99536.05
2018-03-07T20:13:49.447Z,99538.39
2018-03-07T20:16:17.785Z,99536.88
2018-03-07T20:18:46.134Z,99540.55
2018-03-07T20:21:15.213Z,99532.81
2018-03-07T20:23:43.561Z,99536.91
2018-03-07T20:26:11.893Z,99538.42
2018-03-07T20:28:41.177Z,99540.88
2018-03-07T20:31:10.310Z,99545.66
2018-03-07T20:33:38.733Z,99547.12
2018-03-07T20:36:07.309Z,99544.53
2018-03-07T20:38:35.643Z,99550.38
2018-03-07T20:41:04.089Z,99546.85
2018-03-07T20:43:33.253Z,99552.22
2018-03-07T20:46:01.618Z,99553.73
2018-03-07T20:48:29.995Z,99555.65
2018-03-07T20:50:58.385Z,99557.19
2018-03-07T20:53:26.724Z,99561.20
2018-03-07T20:55:55.077Z,99559.56
2018-03-07T20:58:24.288Z,99563.58
2018-03-07T21:00:52.611Z,99570.26
2018-03-07T21:03:20.950Z,99571.59
2018-03-07T21:05:50.082Z,99571.52
2018-03-07T21:08:18.482Z,99568.53
2018-03-07T21:10:46.832Z,99573.86
2018-03-07T21:13:15.211Z,99578.28
2018-03-07T21:15:43.560Z,99581.20
2018-03-07T21:18:12.746Z,99581.19
2018-03-07T21:20:41.445Z,99581.16
2018-03-07T21:23:09.758Z,99578.32
2018-03-07T21:25:38.145Z,99579.52
2018-03-07T21:28:06.515Z,99576.25
2018-03-07T21:30:34.876Z,99583.05
2018-03-07T21:33:03.209Z,99586.93
2018-03-07T21:35:31.547Z,99583.50
2018-03-07T21:37:59.898Z,99587.67
2018-03-07T21:40:28.994Z,99588.84
2018-03-07T21:42:58.152Z,99584.48
2018-03-07T21:45:26.731Z,99593.69
2018-03-07T21:47:55.339Z,99594.59
2018-03-07T21:50:23.726Z,99599.27
2018-03-07T21:52:52.835Z,99610.70
2018-03-07T21:55:21.961Z,99611.19
2018-03-07T21:57:50.326Z,99609.36
2018-03-07T22:00:18.670Z,99609.34
2018-03-07T22:02:47.025Z,99608.38
2018-03-07T22:05:15.580Z,99613.34
2018-03-07T22:07:43.925Z,99606.69
2018-03-07T22:10:13.025Z,99601.26
2018-03-07T22:12:42.210Z,99600.45
2018-03-07T22:15:11.326Z,99596.60
2018-03-07T22:17:39.648Z,99595.66
2018-03-07T22:20:07.985Z,99590.08
2018-03-07T22:22:37.105Z,99596.18
2018-03-07T22:25:05.455Z,99598.70
2018-03-07T22:27:33.872Z,99596.82
2018-03-07T22:30:02.282Z,99602.56
2018-03-07T22:32:30.633Z,99601.80
2018-03-07T22:34:59.030Z,99600.83
2018-03-07T22:37:27.352Z,99594.67
2018-03-07T22:39:56.458Z,99603.69
2018-03-07T22:42:25.575Z,99604.71
2018-03-07T22:44:53.898Z,99604.31
2018-03-07T22:47:22.241Z,99597.03
2018-03-07T22:49:50.814Z,99607.67
2018-03-07T22:52:19.177Z,99604.80
2018-03-07T22:54:47.506Z,99606.08
2018-03-07T22:57:15.891Z,99606.63
2018-03-07T22:59:44.189Z,99600.80
2018-03-07T23:02:12.498Z,99597.78
2018-03-07T23:04:40.839Z,99598.25
2018-03-07T23:07:09.178Z,99597.63
2018-03-07T23:09:37.513Z,99599.95
2018-03-07T23:12:06.856Z,99594.00
2018-03-07T23:14:35.194Z,99602.63
2018-03-07T23:17:04.291Z,99590.34
2018-03-07T23:19:33.473Z,99601.47
2018-03-07T23:22:01.816Z,99599.52
2018-03-07T23:24:30.128Z,99597.81
2018-03-07T23:26:58.488Z,99603.30
2018-03-07T23:29:26.830Z,99597.94
2018-03-07T23:31:55.155Z,99599.24
2018-03-07T23:34:23.967Z,99597.48
2018-03-07T23:36:52.310Z,99604.62
2018-03-07T23:39:20.620Z,99600.14
2018-03-07T23:41:49.738Z,99602.83
2018-03-07T23:44:18.076Z,99601.52
2018-03-07T23:46:46.389Z,99600.27
2018-03-07T23:49:14.772Z,99606.30
2018-03-07T23:51:43.876Z,99602.63
2018-03-07T23:54:12.275Z,99607.35
2018-03-07T23:56:40.718Z,99610.11
2018-03-07T23:59:09.057Z,99622.34
